createdAt,value
2022-12-15T00:00:10.287Z,-4.81
2022-12-15T00:01:10.363Z,-4.79
2022-12-15T00:02:10.404Z,-4.77
2022-12-15T00:03:10.435Z,-4.79
2022-12-15T00:04:10.267Z,-4.59
2022-12-15T00:05:10.265Z,-4.64
2022-12-15T00:06:10.260Z,-4.63
2022-12-15T00:07:10.270Z,-4.61
2022-12-15T00:08:10.264Z,-4.57
2022-12-15T00:09:14.270Z,-4.53
2022-12-15T00:10:10.257Z,-4.60
2022-12-15T00:11:10.253Z,-4.63
2022-12-15T00:12:10.242Z,-4.73
2022-12-15T00:13:10.241Z,-4.73
2022-12-15T00:14:10.236Z,-4.61
2022-12-15T00:15:10.235Z,-4.70
2022-12-15T00:16:10.299Z,-4.61
2022-12-15T00:17:10.227Z,-4.63
2022-12-15T00:18:10.257Z,-4.69
2022-12-15T00:19:10.221Z,-4.63
2022-12-15T00:20:10.217Z,-4.66
2022-12-15T00:21:10.224Z,-4.79
2022-12-15T00:22:10.213Z,-4.82
2022-12-15T00:23:10.210Z,-4.81
2022-12-15T00:24:10.216Z,-4.87
2022-12-15T00:25:10.216Z,-4.85
2022-12-15T00:26:10.209Z,-4.89
2022-12-15T00:27:10.196Z,-4.91
2022-12-15T00:28:10.203Z,-4.88
2022-12-15T00:29:10.192Z,-4.82
2022-12-15T00:30:10.188Z,-4.87
2022-12-15T00:31:10.282Z,-4.89
2022-12-15T00:32:10.185Z,-4.87
2022-12-15T00:33:10.180Z,-4.82
2022-12-15T00:34:10.206Z,-4.88
2022-12-15T00:35:10.171Z,-4.82
2022-12-15T00:36:10.178Z,-4.95
2022-12-15T00:37:10.175Z,-4.99
2022-12-15T00:38:10.177Z,-4.92
2022-12-15T00:39:10.162Z,-4.91
2022-12-15T00:40:10.158Z,-4.92
2022-12-15T00:41:10.162Z,-5.03
2022-12-15T00:42:10.154Z,-4.96
2022-12-15T00:43:10.147Z,-4.87
2022-12-15T00:44:11.648Z,-4.85
2022-12-15T00:45:10.147Z,-4.87
2022-12-15T00:46:10.194Z,-4.85
2022-12-15T00:47:10.142Z,-4.78
2022-12-15T00:48:10.133Z,-4.69
2022-12-15T00:49:10.129Z,-4.85
2022-12-15T00:50:10.152Z,-4.84
2022-12-15T00:51:10.128Z,-4.85
2022-12-15T00:52:10.118Z,-4.91
2022-12-15T00:53:10.118Z,-4.96
2022-12-15T00:54:14.774Z,-4.99
2022-12-15T00:55:10.118Z,-5.08
2022-12-15T00:56:10.106Z,-5.06
2022-12-15T00:57:10.112Z,-4.99
2022-12-15T00:58:10.100Z,-5.06
2022-12-15T00:59:10.104Z,-5.03
2022-12-15T01:00:10.099Z,-5.14
2022-12-15T01:01:10.100Z,-5.17
2022-12-15T01:02:10.261Z,-5.13
2022-12-15T01:03:10.277Z,-5.14
2022-12-15T01:04:10.192Z,-5.08
2022-12-15T01:05:10.086Z,-5.18
2022-12-15T01:06:10.107Z,-5.14
2022-12-15T01:07:10.076Z,-5.14
2022-12-15T01:08:10.077Z,-5.14
2022-12-15T01:09:10.064Z,-5.14
2022-12-15T01:10:10.070Z,-5.14
2022-12-15T01:11:10.056Z,-5.18
2022-12-15T01:12:10.063Z,-5.17
2022-12-15T01:13:10.057Z,-5.06
2022-12-15T01:14:10.056Z,-5.13
2022-12-15T01:15:10.054Z,-5.18
2022-12-15T01:16:10.162Z,-5.09
2022-12-15T01:17:10.044Z,-5.06
2022-12-15T01:18:10.044Z,-5.03
2022-12-15T01:19:10.049Z,-4.92
2022-12-15T01:20:10.028Z,-4.96
2022-12-15T01:21:10.025Z,-4.88
2022-12-15T01:22:10.055Z,-4.82
2022-12-15T01:23:10.027Z,-4.82
2022-12-15T01:24:10.016Z,-4.82
2022-12-15T01:25:10.022Z,-4.77
2022-12-15T01:26:10.017Z,-4.95
2022-12-15T01:27:10.008Z,-4.91
2022-12-15T01:28:10.009Z,-5.05
2022-12-15T01:29:10.001Z,-5.03
2022-12-15T01:30:09.996Z,-5.00
2022-12-15T01:31:10.134Z,-5.03
2022-12-15T01:32:09.997Z,-5.02
2022-12-15T01:33:09.987Z,-5.00
2022-12-15T01:34:09.992Z,-4.84
2022-12-15T01:35:09.979Z,-4.85
2022-12-15T01:36:09.979Z,-4.77
2022-12-15T01:37:09.980Z,-4.73
2022-12-15T01:38:10.002Z,-4.66
2022-12-15T01:39:09.968Z,-4.61
2022-12-15T01:40:09.973Z,-4.63
2022-12-15T01:41:09.961Z,-4.64
2022-12-15T01:42:09.969Z,-4.78
2022-12-15T01:43:09.953Z,-4.71
2022-12-15T01:44:09.950Z,-4.78
2022-12-15T01:45:09.948Z,-4.82
2022-12-15T01:46:09.953Z,-4.85
2022-12-15T01:47:09.979Z,-4.84
2022-12-15T01:48:09.950Z,-4.92
2022-12-15T01:49:09.937Z,-4.91
2022-12-15T01:50:09.939Z,-4.84
2022-12-15T01:51:09.929Z,-4.98
2022-12-15T01:52:09.934Z,-5.05
2022-12-15T01:53:09.930Z,-5.02
2022-12-15T01:54:09.956Z,-5.02
2022-12-15T01:55:09.916Z,-5.18
2022-12-15T01:56:09.919Z,-5.18
2022-12-15T01:57:09.910Z,-5.10
2022-12-15T01:58:09.910Z,-5.10
2022-12-15T01:59:09.904Z,-5.09
2022-12-15T02:00:09.906Z,-5.06
2022-12-15T02:01:09.952Z,-5.02
2022-12-15T02:02:10.085Z,-4.96
2022-12-15T02:03:09.944Z,-4.91
2022-12-15T02:04:09.888Z,-4.91
2022-12-15T02:05:09.891Z,-4.95
2022-12-15T02:06:09.878Z,-4.91
2022-12-15T02:07:09.877Z,-5.03
2022-12-15T02:08:09.873Z,-5.02
2022-12-15T02:09:09.870Z,-5.18
2022-12-15T02:10:09.898Z,-5.10
2022-12-15T02:11:09.862Z,-5.19
2022-12-15T02:12:09.869Z,-5.14
2022-12-15T02:13:09.865Z,-5.14
2022-12-15T02:14:09.856Z,-5.18
2022-12-15T02:15:09.850Z,-5.19
2022-12-15T02:16:09.926Z,-5.22
2022-12-15T02:17:09.845Z,-5.27
2022-12-15T02:18:09.848Z,-5.31
2022-12-15T02:19:09.836Z,-5.38
2022-12-15T02:20:09.839Z,-5.47
2022-12-15T02:21:09.827Z,-5.53
2022-12-15T02:22:09.828Z,-5.49
2022-12-15T02:23:09.822Z,-5.53
2022-12-15T02:24:09.828Z,-5.57
2022-12-15T02:25:09.816Z,-5.54
2022-12-15T02:26:09.856Z,-5.60
2022-12-15T02:27:09.818Z,-5.58
2022-12-15T02:28:09.813Z,-5.54
2022-12-15T02:29:09.804Z,-5.46
2022-12-15T02:30:09.812Z,-5.39
2022-12-15T02:31:09.828Z,-5.51
2022-12-15T02:32:09.870Z,-5.40
2022-12-15T02:33:09.798Z,-5.40
2022-12-15T02:34:09.785Z,-5.38
2022-12-15T02:35:09.782Z,-5.29
2022-12-15T02:36:09.785Z,-5.27
2022-12-15T02:37:09.786Z,-5.27
2022-12-15T02:38:09.784Z,-5.29
2022-12-15T02:39:09.770Z,-5.25
2022-12-15T02:40:09.783Z,-5.24
2022-12-15T02:41:09.771Z,-5.25
2022-12-15T02:42:09.786Z,-5.21
2022-12-15T02:43:09.756Z,-5.17
2022-12-15T02:44:09.751Z,-5.24
2022-12-15T02:45:09.757Z,-5.18
2022-12-15T02:46:09.772Z,-5.18
2022-12-15T02:47:09.741Z,-5.09
2022-12-15T02:48:09.741Z,-5.06
2022-12-15T02:49:09.741Z,-5.08
2022-12-15T02:50:09.734Z,-5.13
2022-12-15T02:51:09.734Z,-5.10
2022-12-15T02:52:09.732Z,-5.08
2022-12-15T02:53:09.720Z,-5.02
2022-12-15T02:54:09.720Z,-4.95
2022-12-15T02:55:09.714Z,-4.91
2022-12-15T02:56:09.714Z,-4.82
2022-12-15T02:57:09.719Z,-4.79
2022-12-15T02:58:09.731Z,-4.78
2022-12-15T02:59:09.709Z,-4.79
2022-12-15T03:00:09.703Z,-4.77
2022-12-15T03:01:09.751Z,-4.73
2022-12-15T03:02:09.838Z,-4.69
2022-12-15T03:03:09.786Z,-4.78
2022-12-15T03:04:09.694Z,-4.61
2022-12-15T03:05:09.693Z,-4.67
2022-12-15T03:06:09.679Z,-4.60
2022-12-15T03:07:09.676Z,-4.57
2022-12-15T03:08:09.680Z,-4.52
2022-12-15T03:09:09.676Z,-4.42
2022-12-15T03:10:09.667Z,-4.41
2022-12-15T03:11:09.665Z,-4.52
2022-12-15T03:12:09.666Z,-4.45
2022-12-15T03:13:09.666Z,-4.48
2022-12-15T03:14:09.685Z,-4.42
2022-12-15T03:15:09.652Z,-4.45
2022-12-15T03:16:09.686Z,-4.46
2022-12-15T03:17:09.653Z,-4.48
2022-12-15T03:18:09.649Z,-4.43
2022-12-15T03:19:09.640Z,-4.46
2022-12-15T03:20:09.637Z,-4.31
2022-12-15T03:21:09.632Z,-4.41
2022-12-15T03:22:09.635Z,-4.41
2022-12-15T03:23:09.626Z,-4.27
2022-12-15T03:24:09.625Z,-4.38
2022-12-15T03:25:09.620Z,-4.30
2022-12-15T03:26:09.621Z,-4.31
2022-12-15T03:27:09.620Z,-4.34
2022-12-15T03:28:09.617Z,-4.28
2022-12-15T03:29:09.614Z,-4.45
2022-12-15T03:30:09.640Z,-4.41
2022-12-15T03:31:09.598Z,-4.49
2022-12-15T03:32:09.705Z,-4.64
2022-12-15T03:33:09.593Z,-4.82
2022-12-15T03:34:09.592Z,-4.96
2022-12-15T03:35:09.590Z,-5.13
2022-12-15T03:36:09.592Z,-5.19
2022-12-15T03:37:09.588Z,-5.33
2022-12-15T03:38:09.577Z,-5.40
2022-12-15T03:39:09.573Z,-5.42
2022-12-15T03:40:09.584Z,-5.43
2022-12-15T03:41:09.569Z,-5.57
2022-12-15T03:42:09.566Z,-5.61
2022-12-15T03:43:09.565Z,-5.67
2022-12-15T03:44:09.565Z,-5.71
2022-12-15T03:45:09.552Z,-5.64
2022-12-15T03:46:09.714Z,-5.75
2022-12-15T03:47:09.553Z,-5.74
2022-12-15T03:48:09.550Z,-5.84
2022-12-15T03:49:09.541Z,-5.92
2022-12-15T03:50:09.537Z,-5.95
2022-12-15T03:51:09.532Z,-5.90
2022-12-15T03:52:09.537Z,-5.92
2022-12-15T03:53:09.524Z,-5.86
2022-12-15T03:54:09.529Z,-6.03
2022-12-15T03:55:09.529Z,-6.03
2022-12-15T03:56:09.538Z,-6.05
2022-12-15T03:57:09.520Z,-5.96
2022-12-15T03:58:09.515Z,-5.99
2022-12-15T03:59:09.512Z,-6.13
2022-12-15T04:00:09.499Z,-6.17
2022-12-15T04:01:09.576Z,-6.26
2022-12-15T04:02:09.728Z,-6.23
2022-12-15T04:03:09.738Z,-6.24
2022-12-15T04:04:09.485Z,-6.29
2022-12-15T04:05:09.482Z,-6.44
2022-12-15T04:06:09.485Z,-6.41
2022-12-15T04:07:09.474Z,-6.44
2022-12-15T04:08:09.479Z,-6.46
2022-12-15T04:09:09.476Z,-6.44
2022-12-15T04:10:09.463Z,-6.36
2022-12-15T04:11:09.464Z,-6.39
2022-12-15T04:12:09.458Z,-6.35
2022-12-15T04:13:09.451Z,-6.35
2022-12-15T04:14:09.457Z,-6.31
2022-12-15T04:15:09.451Z,-6.34
2022-12-15T04:16:09.442Z,-6.28
2022-12-15T04:17:09.490Z,-6.13
2022-12-15T04:18:09.463Z,-6.15
2022-12-15T04:19:09.430Z,-6.17
2022-12-15T04:20:09.432Z,-6.02
2022-12-15T04:21:09.428Z,-6.05
2022-12-15T04:22:13.730Z,-6.03
2022-12-15T04:23:09.415Z,-6.02
2022-12-15T04:24:09.413Z,-5.95
2022-12-15T04:25:09.407Z,-5.85
2022-12-15T04:26:09.405Z,-5.84
2022-12-15T04:27:09.399Z,-5.82
2022-12-15T04:28:09.400Z,-5.86
2022-12-15T04:29:09.394Z,-5.82
2022-12-15T04:30:09.396Z,-5.89
2022-12-15T04:31:09.470Z,-5.92
2022-12-15T04:32:09.380Z,-5.86
2022-12-15T04:33:09.387Z,-5.82
2022-12-15T04:34:09.402Z,-5.82
2022-12-15T04:35:09.387Z,-5.84
2022-12-15T04:36:09.374Z,-5.81
2022-12-15T04:37:09.364Z,-5.85
2022-12-15T04:38:09.359Z,-5.85
2022-12-15T04:39:09.357Z,-5.82
2022-12-15T04:40:09.361Z,-5.75
2022-12-15T04:41:09.349Z,-5.67
2022-12-15T04:42:09.353Z,-5.74
2022-12-15T04:43:09.342Z,-5.74
2022-12-15T04:44:09.347Z,-5.74
2022-12-15T04:45:09.338Z,-5.72
2022-12-15T04:46:09.384Z,-5.72
2022-12-15T04:47:09.334Z,-5.67
2022-12-15T04:48:09.332Z,-5.76
2022-12-15T04:49:09.327Z,-5.67
2022-12-15T04:50:09.349Z,-5.67
2022-12-15T04:51:09.312Z,-5.72
2022-12-15T04:52:09.317Z,-5.89
2022-12-15T04:53:09.312Z,-5.90
2022-12-15T04:54:09.304Z,-6.03
2022-12-15T04:55:09.300Z,-6.10
2022-12-15T04:56:12.507Z,-6.07
2022-12-15T04:57:09.297Z,-6.11
2022-12-15T04:58:09.288Z,-6.11
2022-12-15T04:59:09.289Z,-6.07
2022-12-15T05:00:09.282Z,-6.17
2022-12-15T05:01:09.352Z,-6.18
2022-12-15T05:02:09.450Z,-6.34
2022-12-15T05:03:12.505Z,-6.35
2022-12-15T05:04:09.275Z,-6.44
2022-12-15T05:05:09.269Z,-6.42
2022-12-15T05:06:09.283Z,-6.42
2022-12-15T05:07:09.255Z,-6.38
2022-12-15T05:08:09.249Z,-6.31
2022-12-15T05:09:09.253Z,-6.29
2022-12-15T05:10:14.551Z,-6.24
2022-12-15T05:11:09.239Z,-6.18
2022-12-15T05:12:09.243Z,-6.20
2022-12-15T05:13:09.232Z,-6.15
2022-12-15T05:14:09.233Z,-6.23
2022-12-15T05:15:09.231Z,-6.11
2022-12-15T05:16:09.329Z,-6.15
2022-12-15T05:17:09.279Z,-6.10
2022-12-15T05:18:09.219Z,-6.08
2022-12-15T05:19:09.208Z,-6.08
2022-12-15T05:20:09.205Z,-6.13
2022-12-15T05:21:09.200Z,-6.15
2022-12-15T05:22:09.221Z,-6.18
2022-12-15T05:23:09.193Z,-6.11
2022-12-15T05:24:09.195Z,-6.28
2022-12-15T05:25:09.186Z,-6.28
2022-12-15T05:26:09.191Z,-6.34
2022-12-15T05:27:09.188Z,-6.41
2022-12-15T05:28:09.178Z,-6.36
2022-12-15T05:29:09.205Z,-6.35
2022-12-15T05:30:09.171Z,-6.36
2022-12-15T05:31:09.309Z,-6.38
2022-12-15T05:32:09.167Z,-6.24
2022-12-15T05:33:09.154Z,-6.28
2022-12-15T05:34:09.151Z,-6.07
2022-12-15T05:35:09.149Z,-6.23
2022-12-15T05:36:09.147Z,-6.32
2022-12-15T05:37:09.148Z,-6.38
2022-12-15T05:38:09.158Z,-6.38
2022-12-15T05:39:09.135Z,-6.52
2022-12-15T05:40:09.128Z,-6.46
2022-12-15T05:41:09.125Z,-6.42
2022-12-15T05:42:09.132Z,-6.49
2022-12-15T05:43:09.122Z,-6.46
2022-12-15T05:44:09.113Z,-6.46
2022-12-15T05:45:09.111Z,-6.50
2022-12-15T05:46:09.124Z,-6.46
2022-12-15T05:47:09.103Z,-6.50
2022-12-15T05:48:09.098Z,-6.41
2022-12-15T05:49:09.095Z,-6.39
2022-12-15T05:50:09.093Z,-6.35
2022-12-15T05:51:09.088Z,-6.36
2022-12-15T05:52:09.090Z,-6.26
2022-12-15T05:53:09.088Z,-6.28
2022-12-15T05:54:09.118Z,-6.14
2022-12-15T05:55:09.070Z,-6.15
2022-12-15T05:56:09.069Z,-6.24
2022-12-15T05:57:09.065Z,-6.15
2022-12-15T05:58:09.069Z,-6.08
2022-12-15T05:59:09.070Z,-6.07
2022-12-15T06:00:09.054Z,-6.10
2022-12-15T06:01:09.051Z,-6.02
2022-12-15T06:02:09.108Z,-6.02
2022-12-15T06:03:09.116Z,-5.99
2022-12-15T06:04:09.069Z,-5.81
2022-12-15T06:05:09.140Z,-5.86
2022-12-15T06:06:09.042Z,-5.72
2022-12-15T06:07:09.028Z,-5.72
2022-12-15T06:08:09.027Z,-5.64
2022-12-15T06:09:09.042Z,-5.46
2022-12-15T06:10:09.042Z,-5.56
2022-12-15T06:11:09.019Z,-5.43
2022-12-15T06:12:09.016Z,-5.43
2022-12-15T06:13:09.016Z,-5.36
2022-12-15T06:14:09.009Z,-5.33
2022-12-15T06:15:09.000Z,-5.25
2022-12-15T06:16:09.069Z,-5.03
2022-12-15T06:17:09.003Z,-5.14
2022-12-15T06:18:08.992Z,-5.00
2022-12-15T06:19:08.990Z,-5.06
2022-12-15T06:20:08.994Z,-5.00
2022-12-15T06:21:08.987Z,-5.02
2022-12-15T06:22:08.990Z,-5.00
2022-12-15T06:23:08.977Z,-4.92
2022-12-15T06:24:08.968Z,-4.92
2022-12-15T06:25:08.964Z,-4.91
2022-12-15T06:26:08.994Z,-4.85
2022-12-15T06:27:08.959Z,-4.84
2022-12-15T06:28:08.959Z,-4.81
2022-12-15T06:29:08.968Z,-4.79
2022-12-15T06:30:08.954Z,-4.75
2022-12-15T06:31:08.986Z,-4.81
2022-12-15T06:32:08.942Z,-4.78
2022-12-15T06:33:08.939Z,-4.69
2022-12-15T06:34:08.941Z,-4.61
2022-12-15T06:35:08.942Z,-4.53
2022-12-15T06:36:08.936Z,-4.57
2022-12-15T06:37:08.931Z,-4.63
2022-12-15T06:38:08.923Z,-4.69
2022-12-15T06:39:08.926Z,-4.57
2022-12-15T06:40:08.921Z,-4.64
2022-12-15T06:41:08.910Z,-4.52
2022-12-15T06:42:08.932Z,-4.59
2022-12-15T06:43:08.905Z,-4.57
2022-12-15T06:44:08.901Z,-4.60
2022-12-15T06:45:08.897Z,-4.60
2022-12-15T06:46:08.924Z,-4.63
2022-12-15T06:47:09.007Z,-4.67
2022-12-15T06:48:08.886Z,-4.78
2022-12-15T06:49:08.894Z,-4.78
2022-12-15T06:50:08.883Z,-4.85
2022-12-15T06:51:16.374Z,-4.96
2022-12-15T06:52:08.874Z,-5.00
2022-12-15T06:53:08.880Z,-5.10
2022-12-15T06:54:08.868Z,-5.13
2022-12-15T06:55:08.879Z,-5.03
2022-12-15T06:56:08.868Z,-5.06
2022-12-15T06:57:08.867Z,-5.13
2022-12-15T06:58:08.880Z,-5.14
2022-12-15T06:59:08.851Z,-5.09
2022-12-15T07:00:08.855Z,-5.05
2022-12-15T07:01:08.844Z,-5.13
2022-12-15T07:02:09.035Z,-5.13
2022-12-15T07:03:08.992Z,-5.13
2022-12-15T07:04:08.969Z,-5.14
2022-12-15T07:05:08.839Z,-5.19
2022-12-15T07:06:08.828Z,-5.24
2022-12-15T07:07:08.827Z,-5.24
2022-12-15T07:08:08.820Z,-5.22
2022-12-15T07:09:08.849Z,-5.17
2022-12-15T07:10:08.814Z,-5.17
2022-12-15T07:11:08.819Z,-5.03
2022-12-15T07:12:08.815Z,-5.05
2022-12-15T07:13:08.806Z,-4.96
2022-12-15T07:14:08.837Z,-4.92
2022-12-15T07:15:08.806Z,-4.87
2022-12-15T07:16:08.874Z,-4.87
2022-12-15T07:17:08.799Z,-4.75
2022-12-15T07:18:08.796Z,-4.70
2022-12-15T07:19:08.782Z,-4.66
2022-12-15T07:20:08.787Z,-4.64
2022-12-15T07:21:08.775Z,-4.55
2022-12-15T07:22:08.779Z,-4.60
2022-12-15T07:23:08.770Z,-4.55
2022-12-15T07:24:09.186Z,-4.59
2022-12-15T07:25:08.771Z,-4.61
2022-12-15T07:26:11.679Z,-4.61
2022-12-15T07:27:08.756Z,-4.63
2022-12-15T07:28:08.752Z,-4.67
2022-12-15T07:29:08.765Z,-4.63
2022-12-15T07:30:08.784Z,-4.75
2022-12-15T07:31:08.771Z,-4.81
2022-12-15T07:32:08.741Z,-4.87
2022-12-15T07:33:08.743Z,-4.85
2022-12-15T07:34:08.738Z,-4.85
2022-12-15T07:35:08.728Z,-4.81
2022-12-15T07:36:08.724Z,-4.79
2022-12-15T07:37:08.729Z,-4.77
2022-12-15T07:38:08.724Z,-4.77
2022-12-15T07:39:08.713Z,-4.64
2022-12-15T07:40:08.712Z,-4.55
2022-12-15T07:41:08.706Z,-4.45
2022-12-15T07:42:08.705Z,-4.41
2022-12-15T07:43:08.700Z,-4.50
2022-12-15T07:44:08.698Z,-4.45
2022-12-15T07:45:08.699Z,-4.50
2022-12-15T07:46:08.849Z,-4.49
2022-12-15T07:47:08.692Z,-4.57
2022-12-15T07:48:08.684Z,-4.50
2022-12-15T07:49:08.688Z,-4.45
2022-12-15T07:50:08.685Z,-4.46
2022-12-15T07:51:15.234Z,-4.48
2022-12-15T07:52:08.681Z,-4.42
2022-12-15T07:53:08.673Z,-4.42
2022-12-15T07:54:08.671Z,-4.30
2022-12-15T07:55:08.659Z,-4.30
2022-12-15T07:56:09.956Z,-4.28
2022-12-15T07:57:08.653Z,-4.14
2022-12-15T07:58:08.656Z,-4.12
2022-12-15T07:59:08.647Z,-4.12
2022-12-15T08:00:08.649Z,-4.02
2022-12-15T08:01:08.769Z,-3.99
2022-12-15T08:02:08.805Z,-3.96
2022-12-15T08:03:08.782Z,-3.93
2022-12-15T08:04:08.689Z,-4.07
2022-12-15T08:05:08.627Z,-4.04
2022-12-15T08:06:08.633Z,-4.09
2022-12-15T08:07:08.629Z,-4.17
2022-12-15T08:08:15.140Z,-4.21
2022-12-15T08:09:08.623Z,-4.17
2022-12-15T08:10:08.614Z,-4.24
2022-12-15T08:11:08.620Z,-4.20
2022-12-15T08:12:08.616Z,-4.27
2022-12-15T08:13:08.612Z,-4.27
2022-12-15T08:14:15.028Z,-4.30
2022-12-15T08:15:08.603Z,-4.34
2022-12-15T08:16:08.630Z,-4.30
2022-12-15T08:17:08.591Z,-4.43
2022-12-15T08:18:08.624Z,-4.46
2022-12-15T08:19:08.591Z,-4.43
2022-12-15T08:20:10.254Z,-4.42
2022-12-15T08:21:08.584Z,-4.46
2022-12-15T08:22:08.576Z,-4.49
2022-12-15T08:23:08.571Z,-4.41
2022-12-15T08:24:08.577Z,-4.35
2022-12-15T08:25:08.565Z,-4.31
2022-12-15T08:26:08.565Z,-4.25
2022-12-15T08:27:08.560Z,-4.17
2022-12-15T08:28:08.568Z,-4.21
2022-12-15T08:30:08.554Z,-3.99
2022-12-15T08:31:08.558Z,-3.85
2022-12-15T08:32:08.650Z,-3.88
2022-12-15T08:33:08.549Z,-3.88
2022-12-15T08:34:08.593Z,-3.85
2022-12-15T08:35:25.321Z,-3.89
2022-12-15T08:36:08.539Z,-3.88
2022-12-15T08:37:08.530Z,-3.80
2022-12-15T08:38:08.535Z,-4.02
2022-12-15T08:39:08.531Z,-3.99
2022-12-15T08:40:08.520Z,-4.03
2022-12-15T08:41:08.522Z,-3.99
2022-12-15T08:42:08.514Z,-3.99
2022-12-15T08:43:08.520Z,-3.96
2022-12-15T08:44:08.507Z,-3.95
2022-12-15T08:45:08.514Z,-3.88
2022-12-15T08:46:08.671Z,-3.95
2022-12-15T08:47:08.506Z,-3.93
2022-12-15T08:48:08.506Z,-3.96
2022-12-15T08:49:08.498Z,-3.96
2022-12-15T08:50:08.531Z,-4.04
2022-12-15T08:51:08.489Z,-3.99
2022-12-15T08:52:08.487Z,-4.04
2022-12-15T08:53:30.206Z,-3.91
2022-12-15T08:54:08.489Z,-3.92
2022-12-15T08:55:08.476Z,-3.93
2022-12-15T08:56:08.477Z,-3.86
2022-12-15T08:57:08.472Z,-3.80
2022-12-15T08:58:08.468Z,-3.74
2022-12-15T08:59:08.464Z,-3.58
2022-12-15T09:00:08.462Z,-3.54
2022-12-15T09:01:08.538Z,-3.48
2022-12-15T09:02:08.587Z,-3.41
2022-12-15T09:03:08.453Z,-3.35
2022-12-15T09:04:08.516Z,-3.23
2022-12-15T09:05:08.460Z,-3.19
2022-12-15T09:06:08.464Z,-3.13
2022-12-15T09:07:08.442Z,-3.13
2022-12-15T09:08:08.444Z,-3.04
2022-12-15T09:09:08.445Z,-3.06
2022-12-15T09:10:08.435Z,-2.89
2022-12-15T09:11:08.431Z,-2.84
2022-12-15T09:12:08.426Z,-2.76
2022-12-15T09:13:08.435Z,-2.77
2022-12-15T09:14:08.421Z,-2.69
2022-12-15T09:15:08.419Z,-2.60
2022-12-15T09:16:10.506Z,-2.62
2022-12-15T09:17:08.452Z,-2.48
2022-12-15T09:18:08.410Z,-2.50
2022-12-15T09:19:08.413Z,-2.45
2022-12-15T09:20:08.405Z,-2.41
2022-12-15T09:21:08.405Z,-2.48
2022-12-15T09:22:08.427Z,-2.41
2022-12-15T09:23:08.405Z,-2.38
2022-12-15T09:24:08.400Z,-2.37
2022-12-15T09:25:08.401Z,-2.35
2022-12-15T09:26:08.401Z,-2.37
2022-12-15T09:27:08.395Z,-2.37
2022-12-15T09:28:08.388Z,-2.41
2022-12-15T09:29:08.390Z,-2.35
2022-12-15T09:30:08.390Z,-2.34
2022-12-15T09:31:08.485Z,-2.37
2022-12-15T09:32:13.864Z,-2.32
2022-12-15T09:33:08.383Z,-2.25
2022-12-15T09:34:08.374Z,-2.37
2022-12-15T09:35:08.376Z,-2.40
2022-12-15T09:36:08.370Z,-2.44
2022-12-15T09:37:08.364Z,-2.45
2022-12-15T09:38:08.387Z,-2.41
2022-12-15T09:39:08.366Z,-2.48
2022-12-15T09:40:08.358Z,-2.35
2022-12-15T09:41:08.357Z,-2.41
2022-12-15T09:42:08.362Z,-2.32
2022-12-15T09:43:33.481Z,-2.22
2022-12-15T09:44:08.356Z,-2.28
2022-12-15T09:45:08.356Z,-2.21
2022-12-15T09:46:08.456Z,-2.22
2022-12-15T09:47:08.342Z,-2.23
2022-12-15T09:48:08.346Z,-2.19
2022-12-15T09:49:08.348Z,-2.13
2022-12-15T09:50:08.336Z,-2.08
2022-12-15T09:51:08.342Z,-2.15
2022-12-15T09:52:11.258Z,-2.07
2022-12-15T09:53:23.298Z,-1.77
2022-12-15T09:54:08.346Z,-1.43
2022-12-15T09:55:08.434Z,-1.01
2022-12-15T09:56:08.329Z,-0.44
2022-12-15T09:57:08.326Z,-0.13
2022-12-15T09:58:11.134Z,0.31
2022-12-15T09:59:08.314Z,0.65
2022-12-15T10:00:08.321Z,1.06
2022-12-15T10:01:08.320Z,1.45
2022-12-15T10:02:08.410Z,1.97
2022-12-15T10:03:08.474Z,2.32
2022-12-15T10:04:08.382Z,2.71
2022-12-15T10:05:08.311Z,3.07
2022-12-15T10:06:17.611Z,3.44
2022-12-15T10:07:08.311Z,3.92
2022-12-15T10:08:08.300Z,4.17
2022-12-15T10:09:08.303Z,4.37
2022-12-15T10:10:08.319Z,4.60
2022-12-15T10:11:08.293Z,4.71
2022-12-15T10:12:08.295Z,4.93
2022-12-15T10:13:08.300Z,5.18
2022-12-15T10:14:08.297Z,5.38
2022-12-15T10:15:08.299Z,5.59
2022-12-15T10:16:08.360Z,5.66
2022-12-15T10:17:08.293Z,5.69
2022-12-15T10:18:08.293Z,5.66
2022-12-15T10:19:08.292Z,5.69
2022-12-15T10:20:08.292Z,5.71
2022-12-15T10:21:08.292Z,5.62
2022-12-15T10:22:08.302Z,5.61
2022-12-15T10:23:08.360Z,5.65
2022-12-15T10:24:08.307Z,5.57
2022-12-15T10:25:10.109Z,5.61
2022-12-15T10:26:08.326Z,5.53
2022-12-15T10:27:08.301Z,5.62
2022-12-15T10:28:08.317Z,5.62
2022-12-15T10:29:08.306Z,5.69
2022-12-15T10:30:08.433Z,5.97
2022-12-15T10:31:08.382Z,6.14
2022-12-15T10:32:08.313Z,6.35
2022-12-15T10:33:08.325Z,6.56
2022-12-15T10:34:08.319Z,6.81
2022-12-15T10:35:08.324Z,6.75
2022-12-15T10:36:08.331Z,6.85
2022-12-15T10:37:08.332Z,6.77
2022-12-15T10:38:08.333Z,6.66
2022-12-15T10:39:11.611Z,6.64
2022-12-15T10:40:08.352Z,6.69
2022-12-15T10:41:08.346Z,6.67
2022-12-15T10:42:08.377Z,6.62
2022-12-15T10:43:08.356Z,6.62
2022-12-15T10:44:08.357Z,6.78
2022-12-15T10:45:08.369Z,6.95
2022-12-15T10:46:08.510Z,6.87
2022-12-15T10:47:08.371Z,6.87
2022-12-15T10:48:08.381Z,6.84
2022-12-15T10:49:08.386Z,6.85
2022-12-15T10:50:08.381Z,6.82
2022-12-15T10:51:08.386Z,6.97
2022-12-15T10:52:08.390Z,6.89
2022-12-15T10:53:08.393Z,6.93
2022-12-15T10:54:08.405Z,7.06
2022-12-15T10:55:08.410Z,7.13
2022-12-15T10:56:08.412Z,7.17
2022-12-15T10:57:08.409Z,7.24
2022-12-15T10:58:08.455Z,7.40
2022-12-15T10:59:08.418Z,7.51
2022-12-15T11:00:08.431Z,7.66
2022-12-15T11:01:08.539Z,7.70
2022-12-15T11:02:11.294Z,7.83
2022-12-15T11:03:08.720Z,7.91
2022-12-15T11:04:08.560Z,7.77
2022-12-15T11:05:08.448Z,7.90
2022-12-15T11:06:08.453Z,7.90
2022-12-15T11:07:08.463Z,7.95
2022-12-15T11:08:12.233Z,8.05
2022-12-15T11:09:08.473Z,7.98
2022-12-15T11:10:08.473Z,8.00
2022-12-15T11:11:08.476Z,8.13
2022-12-15T11:12:12.063Z,8.10
2022-12-15T11:13:08.490Z,8.18
2022-12-15T11:14:08.528Z,8.23
2022-12-15T11:15:08.508Z,8.27
2022-12-15T11:16:08.515Z,8.42
2022-12-15T11:17:08.522Z,8.46
2022-12-15T11:18:08.528Z,8.34
2022-12-15T11:19:08.529Z,8.24
2022-12-15T11:20:08.533Z,8.03
2022-12-15T11:21:08.540Z,7.85
2022-12-15T11:22:08.552Z,7.40
2022-12-15T11:23:08.549Z,6.97
2022-12-15T11:24:08.565Z,6.59
2022-12-15T11:25:08.568Z,6.27
2022-12-15T11:26:08.568Z,5.93
2022-12-15T11:27:08.572Z,5.59
2022-12-15T11:28:08.585Z,5.53
2022-12-15T11:29:08.583Z,5.30
2022-12-15T11:30:08.607Z,5.26
2022-12-15T11:31:08.589Z,5.23
2022-12-15T11:32:08.595Z,5.26
2022-12-15T11:33:08.597Z,5.47
2022-12-15T11:34:08.602Z,5.44
2022-12-15T11:35:08.603Z,5.62
2022-12-15T11:36:08.609Z,5.62
2022-12-15T11:37:08.617Z,5.53
2022-12-15T11:38:08.621Z,5.47
2022-12-15T11:39:08.658Z,5.46
2022-12-15T11:40:08.617Z,5.48
2022-12-15T11:41:08.625Z,5.41
2022-12-15T11:42:08.630Z,5.29
2022-12-15T11:43:08.634Z,5.21
2022-12-15T11:44:08.626Z,5.05
2022-12-15T11:45:08.628Z,5.04
2022-12-15T11:46:08.659Z,4.94
2022-12-15T11:47:08.640Z,4.89
2022-12-15T11:48:08.631Z,4.78
2022-12-15T11:49:08.635Z,4.74
2022-12-15T11:50:08.643Z,4.63
2022-12-15T11:51:08.637Z,4.59
2022-12-15T11:52:08.640Z,4.44
2022-12-15T11:53:08.639Z,4.38
2022-12-15T11:54:08.641Z,4.26
2022-12-15T11:55:08.639Z,4.10
2022-12-15T11:56:08.649Z,3.94
2022-12-15T11:57:08.642Z,3.83
2022-12-15T11:58:08.643Z,3.70
2022-12-15T11:59:08.653Z,3.59
2022-12-15T12:00:08.652Z,3.63
2022-12-15T12:01:08.653Z,3.50
2022-12-15T12:02:08.774Z,3.29
2022-12-15T12:03:08.717Z,3.28
2022-12-15T12:04:08.654Z,3.13
2022-12-15T12:05:08.657Z,3.07
2022-12-15T12:06:08.655Z,3.08
2022-12-15T12:07:08.659Z,2.93
2022-12-15T12:08:08.656Z,2.83
2022-12-15T12:09:08.657Z,2.86
2022-12-15T12:10:08.650Z,2.80
2022-12-15T12:11:08.752Z,2.79
2022-12-15T12:12:08.657Z,2.62
2022-12-15T12:13:08.661Z,2.57
2022-12-15T12:14:11.724Z,2.56
2022-12-15T12:15:08.657Z,2.61
2022-12-15T12:16:08.659Z,2.57
2022-12-15T12:17:08.652Z,2.51
2022-12-15T12:18:08.673Z,2.44
2022-12-15T12:19:08.703Z,2.35
2022-12-15T12:20:11.519Z,2.28
2022-12-15T12:21:08.659Z,2.42
2022-12-15T12:22:08.655Z,2.32
2022-12-15T12:23:08.651Z,2.28
2022-12-15T12:24:08.659Z,2.25
2022-12-15T12:25:08.659Z,2.26
2022-12-15T12:26:08.654Z,2.14
2022-12-15T12:27:08.651Z,2.14
2022-12-15T12:28:08.660Z,2.13
2022-12-15T12:29:08.664Z,2.07
2022-12-15T12:30:08.654Z,2.06
2022-12-15T12:31:08.653Z,1.97
2022-12-15T12:32:08.652Z,1.97
2022-12-15T12:33:08.654Z,1.99
2022-12-15T12:34:08.698Z,1.94
2022-12-15T12:35:30.367Z,1.97
2022-12-15T12:36:08.659Z,1.94
2022-12-15T12:37:08.659Z,1.92
2022-12-15T12:38:08.666Z,1.97
2022-12-15T12:39:08.652Z,2.04
2022-12-15T12:40:08.658Z,2.07
2022-12-15T12:41:08.659Z,2.02
2022-12-15T12:42:08.651Z,1.97
2022-12-15T12:43:13.653Z,2.06
2022-12-15T12:44:08.659Z,2.10
2022-12-15T12:45:08.659Z,2.14
2022-12-15T12:46:08.659Z,2.18
2022-12-15T12:47:08.653Z,2.08
2022-12-15T12:48:08.651Z,2.10
2022-12-15T12:49:08.652Z,2.10
2022-12-15T12:50:08.683Z,2.13
2022-12-15T12:51:08.681Z,2.15
2022-12-15T12:52:08.650Z,2.00
2022-12-15T12:53:08.658Z,2.02
2022-12-15T12:54:08.657Z,2.04
2022-12-15T12:55:12.755Z,2.02
2022-12-15T12:56:08.654Z,1.92
2022-12-15T12:57:08.657Z,1.94
2022-12-15T12:58:08.656Z,1.94
2022-12-15T12:59:08.675Z,1.95